»·PEaware :: AAL73 YSSY-KLAX

AAL73 :: YSSY-KLAX

FLIGHT INFORMATION

Flight Status: Arrived
Operator:
American Airlines
More flights by this operator :: More flights under this callsign
Pilot: Leighton T. (7520)
Aircraft: BOEING 777-300
(B773)
More flights by this aircraft type
Origin: YSSY Kingsford Smith Intl
Australia
Destination: KLAX Los Angeles Intl
United States
More flights between these airports :: More routes between these airports
Route: +GOATZ BUFIE4
File this flight plan on PilotEdge
Remarks:
Altitude:
(Current/Filed)
37,000ft
Speed:
(Current/Filed)
280kts
Departed: 16-Jun-16 12:47 PM
Arrived: 16-Jun-16 02:12 PM
Distance/Time
Traveled:
6508nm/1:25
Distance/Time
To Go:
Arrived

Flight Plot

Page will automatically refresh every two minutes.

Flight plan parsing failed; only flown route is shown


Map Options




Map Legend


Flown Route
Filed Route
Departure Airport
Arrival Airport
Navaid (VOR, NDB)
Fix

Horizontal Profiles

Position Reports

Time Latitude Longitude Heading Altitude Ground
Speed
16-Jun-16 12:43 33.019553 -129.290971 75 37189ft 538kts
16-Jun-16 12:44 33.058139 -129.118878 75 37188ft 537kts
16-Jun-16 12:45 33.096693 -128.945711 76 37189ft 537kts
16-Jun-16 12:46 33.134741 -128.773598 76 37172ft 537kts
16-Jun-16 12:47 33.172813 -128.600145 76 37172ft 537kts
16-Jun-16 12:48 33.210528 -128.427092 76 37171ft 537kts
16-Jun-16 12:49 33.247906 -128.254315 76 37167ft 538kts
16-Jun-16 12:50 33.285112 -128.081089 76 37170ft 539kts
16-Jun-16 12:51 33.322270 -127.906817 77 37171ft 541kts
16-Jun-16 12:52 33.359426 -127.731238 77 37171ft 541kts
16-Jun-16 12:53 33.396077 -127.556744 77 37180ft 541kts
16-Jun-16 12:54 33.432549 -127.381792 77 37180ft 540kts
16-Jun-16 12:55 33.468592 -127.207588 77 37169ft 539kts
16-Jun-16 12:56 33.504408 -127.033150 78 37169ft 538kts
16-Jun-16 12:57 33.539907 -126.858928 78 37168ft 536kts
16-Jun-16 12:58 33.575087 -126.684928 78 37168ft 536kts
16-Jun-16 12:59 33.610008 -126.510875 78 37169ft 535kts
16-Jun-16 13:00 33.644667 -126.336760 78 37169ft 535kts
16-Jun-16 13:01 33.679001 -126.162924 78 37169ft 536kts
16-Jun-16 13:02 33.713327 -125.987742 78 37161ft 536kts
16-Jun-16 13:03 33.747200 -125.813483 79 37161ft 536kts
16-Jun-16 13:04 33.780922 -125.638593 79 37162ft 536kts
16-Jun-16 13:05 33.814263 -125.464283 79 37161ft 535kts
16-Jun-16 13:06 33.847398 -125.289759 79 37161ft 533kts
16-Jun-16 13:07 33.880473 -125.115051 79 37161ft 532kts
16-Jun-16 13:08 33.912604 -124.941789 79 37162ft 531kts
16-Jun-16 13:09 33.988395 -124.795068 34 37177ft 528kts
16-Jun-16 13:10 34.056400 -124.644081 90 37166ft 527kts
16-Jun-16 13:11 34.039804 -124.470749 103 37162ft 518kts
16-Jun-16 13:12 34.018241 -124.299005 103 37161ft 516kts
16-Jun-16 13:13 33.996605 -124.127535 103 37164ft 516kts
16-Jun-16 13:14 33.974849 -123.956923 103 37161ft 516kts
16-Jun-16 13:15 33.952718 -123.785301 103 37161ft 516kts
16-Jun-16 13:16 33.930497 -123.614893 103 37152ft 515kts
16-Jun-16 13:17 33.907994 -123.444216 103 37151ft 515kts
16-Jun-16 13:18 33.885265 -123.273688 103 37151ft 514kts
16-Jun-16 13:19 33.862335 -123.103506 103 37149ft 514kts
16-Jun-16 13:20 33.839179 -122.933468 103 37150ft 514kts
16-Jun-16 13:21 33.815871 -122.764107 104 37150ft 513kts
16-Jun-16 13:22 33.792321 -122.594762 104 37150ft 512kts
16-Jun-16 13:23 33.768631 -122.426151 104 37156ft 512kts
16-Jun-16 13:24 33.744595 -122.256804 104 37156ft 511kts
16-Jun-16 13:25 33.720485 -122.088645 104 37151ft 511kts
16-Jun-16 13:26 33.696235 -121.921170 104 36218ft 503kts
16-Jun-16 13:27 33.672192 -121.756741 104 35214ft 495kts
16-Jun-16 13:28 33.648331 -121.595081 104 34099ft 486kts
16-Jun-16 13:29 33.624698 -121.436430 104 32994ft 479kts
16-Jun-16 13:30 33.601189 -121.280030 104 31951ft 472kts
16-Jun-16 13:31 33.577132 -121.121407 104 31150ft 499kts
16-Jun-16 13:32 33.552128 -120.958011 104 30351ft 495kts
16-Jun-16 13:33 33.527124 -120.796070 104 29544ft 489kts
16-Jun-16 13:34 33.502473 -120.637814 104 28354ft 481kts
16-Jun-16 13:35 33.477823 -120.480904 104 27195ft 472kts
16-Jun-16 13:36 33.453465 -120.327142 104 26091ft 465kts
16-Jun-16 13:37 33.429322 -120.175969 104 25076ft 458kts
16-Jun-16 13:38 33.405889 -120.030370 105 24663ft 424kts
16-Jun-16 13:39 33.382716 -119.887490 105 24630ft 451kts
16-Jun-16 13:40 33.362152 -119.761505 105 24617ft 472kts
16-Jun-16 13:41 33.333651 -119.588214 105 23451ft 443kts
16-Jun-16 13:42 33.313772 -119.468206 105 22003ft 436kts
16-Jun-16 13:43 33.290208 -119.326796 104 20279ft 432kts
16-Jun-16 13:44 33.266683 -119.186455 104 18553ft 427kts
16-Jun-16 13:45 33.243444 -119.048318 104 16711ft 413kts
16-Jun-16 13:46 33.225778 -118.919962 104 15136ft 378kts
16-Jun-16 13:47 33.205558 -118.798582 103 13623ft 366kts
16-Jun-16 13:48 33.193993 -118.680782 75 12170ft 355kts
16-Jun-16 13:49 33.247450 -118.587405 46 12033ft 334kts
16-Jun-16 13:50 33.310609 -118.505245 46 12036ft 335kts
16-Jun-16 13:51 33.369386 -118.418796 64 12038ft 337kts
16-Jun-16 13:52 33.391686 -118.310643 81 12038ft 335kts
16-Jun-16 13:53 33.407074 -118.200140 81 12026ft 336kts
16-Jun-16 13:54 33.449404 -118.106500 40 11905ft 329kts
16-Jun-16 13:55 33.522062 -118.045835 30 11094ft 307kts
16-Jun-16 13:56 33.596833 -118.005288 3 9957ft 290kts
16-Jun-16 13:57 33.631611 -118.004625 351 9462ft 283kts
16-Jun-16 13:58 33.708674 -118.024908 345 7954ft 289kts
16-Jun-16 13:59 33.786597 -118.045002 345 6499ft 278kts
16-Jun-16 14:00 33.860234 -118.064582 345 5070ft 247kts
16-Jun-16 14:01 33.917908 -118.080087 345 4930ft 178kts
16-Jun-16 14:02 33.969809 -118.100305 309 4921ft 203kts
16-Jun-16 14:03 33.968247 -118.162354 256 4949ft 180kts
16-Jun-16 14:04 33.956093 -118.212281 254 3526ft 145kts
16-Jun-16 14:05 33.948562 -118.260823 261 2544ft 147kts
16-Jun-16 14:06 33.944548 -118.308215 262 1436ft 141kts
16-Jun-16 14:07 33.940238 -118.354435 260 628ft 137kts
16-Jun-16 14:08 33.936078 -118.395498 262 140ft 61kts
16-Jun-16 14:09 33.936497 -118.399287 290 139ft 0kts
16-Jun-16 14:10 33.936580 -118.401090 263 139ft 10kts
16-Jun-16 14:11 33.937202 -118.404047 333 139ft 8kts
16-Jun-16 14:12 33.938056 -118.404276 353 139ft 0kts
16-Jun-16 14:13 33.938235 -118.405766 264 139ft 19kts
16-Jun-16 14:14 33.937864 -118.410335 304 139ft 7kts
16-Jun-16 14:15 33.939772 -118.409940 165 139ft 18kts
16-Jun-16 14:16 33.940593 -118.408395 271 139ft 3kts

Navigation Log

Ident Type
Flight plan parsing failed, navigation log unavailable